Time;durP1;ratioP1;P1;durP2;ratioP2;P2;SDS_P1;SDS_P2;PMS_P1;PMS_P2;Temp;Humidity;BMP_temperature;BMP_pressure;BME280_temperature;BME280_humidity;BME280_pressure;Samples;Min_cycle;Max_cycle;Signal;HPM_P1;HPM_P2
2021/12/19 00:01:23;;;;;;;12.07;3.50;;;8.00;99.90;;;;;;5077679;28;20482;-70
2021/12/19 00:03:58;;;;;;;5.13;2.83;;;8.00;99.90;;;;;;5078647;28;20448;-70
2021/12/19 00:09:11;;;;;;;10.63;3.33;;;8.00;99.90;;;;;;5079031;28;20579;-70
2021/12/19 00:11:38;;;;;;;10.10;3.40;;;8.00;99.90;;;;;;5077610;28;20474;-69
2021/12/19 00:14:05;;;;;;;8.43;3.47;;;8.00;99.90;;;;;;5076858;28;20862;-69
2021/12/19 00:16:32;;;;;;;8.40;3.17;;;8.10;99.90;;;;;;5076836;28;20454;-69
2021/12/19 00:19:00;;;;;;;9.87;3.53;;;8.10;99.90;;;;;;5076895;28;20485;-69
2021/12/19 00:21:32;;;;;;;5.93;2.80;;;8.10;99.90;;;;;;5076584;28;20914;-69
2021/12/19 00:23:59;;;;;;;6.73;2.97;;;8.10;99.90;;;;;;5077285;28;20449;-70
2021/12/19 00:26:25;;;;;;;7.67;3.40;;;8.10;99.90;;;;;;5076931;28;20458;-69
2021/12/19 00:28:53;;;;;;;10.93;3.53;;;8.10;99.90;;;;;;5076932;28;20459;-70
2021/12/19 00:31:20;;;;;;;9.20;2.70;;;8.00;99.90;;;;;;5077349;28;20851;-70
2021/12/19 00:33:47;;;;;;;5.70;3.33;;;8.00;99.90;;;;;;5076953;28;20461;-70
2021/12/19 00:36:14;;;;;;;12.90;3.47;;;8.10;99.90;;;;;;5076875;28;20515;-70
2021/12/19 00:38:42;;;;;;;4.60;2.50;;;8.00;99.90;;;;;;5076251;28;20535;-69
2021/12/19 00:41:10;;;;;;;6.97;2.70;;;8.00;99.90;;;;;;5076044;28;20462;-70
2021/12/19 00:43:45;;;;;;;5.70;2.93;;;8.00;99.90;;;;;;5076030;28;20458;-70
2021/12/19 00:46:14;;;;;;;9.60;3.13;;;8.00;99.90;;;;;;5076159;28;20507;-70
2021/12/19 00:48:43;;;;;;;6.90;3.20;;;8.00;99.90;;;;;;5076083;28;20770;-70
2021/12/19 00:51:13;;;;;;;5.47;3.47;;;8.00;99.90;;;;;;5076048;28;20454;-70
2021/12/19 00:53:42;;;;;;;6.77;3.03;;;8.00;99.90;;;;;;5076387;28;20453;-70
2021/12/19 00:56:09;;;;;;;8.40;4.37;;;8.00;99.90;;;;;;5076138;28;20454;-70
2021/12/19 00:58:36;;;;;;;6.47;3.53;;;8.00;99.90;;;;;;5075941;28;20482;-70
2021/12/19 01:01:05;;;;;;;6.93;3.60;;;8.00;99.90;;;;;;5075318;28;20474;-70
2021/12/19 01:03:32;;;;;;;5.07;3.73;;;8.00;99.90;;;;;;5075639;28;20469;-70
2021/12/19 01:06:00;;;;;;;7.40;4.43;;;8.00;99.90;;;;;;5075594;28;20465;-70
2021/12/19 01:08:27;;;;;;;8.00;4.40;;;8.00;99.90;;;;;;5075761;28;20450;-70
2021/12/19 01:10:55;;;;;;;8.87;5.00;;;8.00;99.90;;;;;;5075603;28;20473;-69
2021/12/19 01:13:23;;;;;;;9.40;4.40;;;8.00;99.90;;;;;;5075783;28;20511;-71
2021/12/19 01:15:51;;;;;;;7.03;4.13;;;7.90;99.90;;;;;;5075151;28;20454;-70
2021/12/19 01:18:20;;;;;;;7.50;4.77;;;7.90;99.90;;;;;;5075762;28;20474;-69
2021/12/19 01:20:47;;;;;;;7.77;3.87;;;8.00;99.90;;;;;;5075268;28;20458;-69
2021/12/19 01:23:14;;;;;;;8.70;4.73;;;7.90;99.90;;;;;;5075078;28;20569;-70
2021/12/19 01:25:40;;;;;;;6.70;4.50;;;7.80;99.90;;;;;;5075371;28;20469;-70
2021/12/19 01:28:08;;;;;;;7.63;3.93;;;7.90;99.90;;;;;;5075952;28;20461;-71
2021/12/19 01:30:36;;;;;;;7.50;4.50;;;7.90;99.90;;;;;;5075722;28;20796;-70
2021/12/19 01:33:03;;;;;;;6.40;4.93;;;7.90;99.90;;;;;;5076255;28;20535;-70
2021/12/19 01:35:30;;;;;;;8.00;5.30;;;7.90;99.90;;;;;;5075506;28;20789;-70
2021/12/19 01:37:57;;;;;;;8.90;4.50;;;7.90;99.90;;;;;;5075150;28;20466;-70
2021/12/19 01:40:24;;;;;;;5.80;4.97;;;7.80;99.90;;;;;;5074451;28;20473;-70
2021/12/19 01:42:54;;;;;;;6.07;4.50;;;7.80;99.90;;;;;;5075198;28;20458;-70
2021/12/19 01:45:28;;;;;;;7.33;5.40;;;7.80;99.90;;;;;;5074955;28;20469;-70
2021/12/19 01:47:55;;;;;;;5.97;5.37;;;7.80;99.90;;;;;;5075340;28;20449;-70
2021/12/19 01:50:23;;;;;;;12.70;5.90;;;7.90;99.90;;;;;;5074711;28;20450;-70
2021/12/19 01:52:50;;;;;;;11.90;7.30;;;7.80;99.90;;;;;;5075058;28;20785;-70
2021/12/19 01:55:17;;;;;;;8.50;6.17;;;7.80;99.90;;;;;;5075208;28;20462;-70
2021/12/19 01:57:44;;;;;;;10.43;6.50;;;7.90;99.90;;;;;;5075337;28;20458;-70
2021/12/19 02:00:20;;;;;;;10.90;7.20;;;7.80;99.90;;;;;;5074897;28;20481;-70
2021/12/19 02:02:49;;;;;;;6.17;5.67;;;7.90;99.90;;;;;;5074502;28;20493;-70
2021/12/19 02:05:15;;;;;;;10.50;6.30;;;7.90;99.90;;;;;;5074968;28;20450;-70
2021/12/19 02:07:46;;;;;;;8.47;6.40;;;7.80;99.90;;;;;;5074655;28;20485;-70
2021/12/19 02:10:14;;;;;;;5.87;5.27;;;7.80;99.90;;;;;;5074906;28;20534;-70
2021/12/19 02:12:41;;;;;;;8.77;5.30;;;7.80;99.90;;;;;;5074688;28;20466;-70
2021/12/19 02:15:09;;;;;;;8.23;5.17;;;7.80;99.90;;;;;;5074736;28;20469;-70
2021/12/19 02:17:36;;;;;;;5.93;5.30;;;7.80;99.90;;;;;;5074543;28;20836;-69
2021/12/19 02:20:10;;;;;;;7.17;5.17;;;7.80;99.90;;;;;;5074269;28;20484;-69
2021/12/19 02:22:36;;;;;;;6.93;4.93;;;7.70;99.90;;;;;;5074787;28;20449;-69
2021/12/19 02:25:04;;;;;;;6.40;4.97;;;7.70;99.90;;;;;;5074482;28;20459;-69
2021/12/19 02:27:31;;;;;;;6.33;4.73;;;7.80;99.90;;;;;;5075092;28;20458;-69
2021/12/19 02:29:58;;;;;;;14.30;5.00;;;7.80;99.90;;;;;;5074657;28;20454;-69
2021/12/19 02:32:27;;;;;;;8.20;4.33;;;7.80;99.90;;;;;;5074515;28;20462;-69
2021/12/19 02:34:56;;;;;;;4.37;3.97;;;7.80;99.90;;;;;;5074208;28;20883;-69
2021/12/19 02:37:53;;;;;;;4.73;4.23;;;7.70;99.90;;;;;;5074608;28;20556;-69
2021/12/19 02:40:39;;;;;;;6.53;3.97;;;7.70;99.90;;;;;;5073945;28;20553;-69
2021/12/19 02:48:34;;;;;;;11.57;3.50;;;7.80;99.90;;;;;;5053385;28;20453;-69
2021/12/19 02:51:02;;;;;;;7.10;3.37;;;7.80;99.90;;;;;;5074535;28;20832;-69
2021/12/19 02:53:32;;;;;;;6.40;3.30;;;7.70;99.90;;;;;;5078356;28;20764;-69
2021/12/19 02:56:01;;;;;;;5.30;2.60;;;7.70;99.90;;;;;;5078464;28;20758;-70
2021/12/19 02:58:29;;;;;;;5.80;2.80;;;7.80;99.90;;;;;;5078136;28;20519;-70
2021/12/19 03:00:57;;;;;;;4.87;2.73;;;7.80;99.90;;;;;;5078179;28;20457;-70
2021/12/19 03:03:24;;;;;;;5.13;2.97;;;7.80;99.90;;;;;;5077800;28;20555;-70
2021/12/19 03:05:51;;;;;;;8.77;2.60;;;7.80;99.90;;;;;;5077689;28;20458;-71
2021/12/19 03:08:18;;;;;;;5.90;2.37;;;7.80;99.90;;;;;;5078301;28;20827;-70
2021/12/19 03:17:55;;;;;;;3.10;2.80;;;7.80;99.90;;;;;;5077837;28;20429;-70
2021/12/19 03:19:04;;;;;;;3.50;2.00;;;7.80;99.90;;;;;;5077937;28;20465;-70
2021/12/19 03:21:31;;;;;;;3.53;1.90;;;7.90;99.90;;;;;;5077828;28;20466;-69
2021/12/19 03:23:58;;;;;;;3.53;2.23;;;7.90;99.90;;;;;;5077578;28;20454;-69
2021/12/19 03:26:28;;;;;;;2.73;1.70;;;7.80;99.90;;;;;;5077886;28;20469;-69
2021/12/19 03:28:55;;;;;;;5.17;2.07;;;7.80;99.90;;;;;;5077736;28;20752;-69
2021/12/19 03:31:22;;;;;;;3.57;1.93;;;7.80;99.90;;;;;;5077953;28;20454;-68
2021/12/19 03:33:49;;;;;;;2.83;1.93;;;7.80;99.90;;;;;;5077888;28;20458;-69
2021/12/19 03:36:15;;;;;;;2.07;1.50;;;7.80;99.90;;;;;;5077720;28;20476;-70
2021/12/19 03:38:44;;;;;;;6.53;1.83;;;7.80;99.90;;;;;;5077571;28;20489;-69
2021/12/19 03:41:17;;;;;;;2.53;1.77;;;7.80;99.90;;;;;;5077170;28;20454;-70
2021/12/19 03:43:46;;;;;;;3.57;1.80;;;7.80;99.90;;;;;;5077571;28;20885;-70
2021/12/19 03:46:13;;;;;;;3.30;1.90;;;7.90;99.90;;;;;;5077514;28;20473;-70
2021/12/19 03:48:39;;;;;;;2.60;2.37;;;7.90;99.90;;;;;;5077377;28;20461;-69
2021/12/19 03:51:07;;;;;;;3.40;2.17;;;7.80;99.90;;;;;;5077938;28;20469;-71
2021/12/19 03:53:34;;;;;;;4.63;2.27;;;7.80;99.90;;;;;;5076923;28;20937;-70
2021/12/19 03:56:00;;;;;;;2.97;2.43;;;7.80;99.90;;;;;;5077181;28;20461;-69
2021/12/19 03:58:27;;;;;;;3.13;2.20;;;7.90;99.90;;;;;;5076932;28;20465;-69
2021/12/19 04:00:59;;;;;;;4.43;2.10;;;7.80;99.90;;;;;;5077850;28;20469;-69
2021/12/19 04:03:26;;;;;;;5.13;2.80;;;7.90;99.90;;;;;;5076046;28;20888;-70
2021/12/19 04:05:53;;;;;;;3.00;2.70;;;7.80;99.90;;;;;;5076958;28;20462;-69
2021/12/19 04:08:21;;;;;;;4.93;2.70;;;7.80;99.90;;;;;;5076984;28;20451;-68
2021/12/19 04:10:49;;;;;;;3.17;2.67;;;7.80;99.90;;;;;;5077117;28;20461;-69
2021/12/19 04:13:16;;;;;;;3.00;2.70;;;7.80;99.90;;;;;;5077134;28;20609;-69
2021/12/19 04:15:43;;;;;;;4.73;3.10;;;7.80;99.90;;;;;;5076419;28;20458;-69
2021/12/19 04:18:11;;;;;;;4.27;3.17;;;7.80;99.90;;;;;;5076939;28;20454;-70
2021/12/19 04:20:38;;;;;;;5.50;3.70;;;7.90;99.90;;;;;;5076524;28;20968;-70
2021/12/19 04:23:05;;;;;;;6.07;3.30;;;7.90;99.90;;;;;;5076765;28;20843;-70
2021/12/19 04:25:32;;;;;;;4.00;3.60;;;7.90;99.90;;;;;;5076583;28;20791;-70
2021/12/19 04:27:58;;;;;;;5.90;4.03;;;7.90;99.90;;;;;;5076652;28;20519;-70
2021/12/19 04:30:26;;;;;;;6.37;3.30;;;7.90;99.90;;;;;;5077076;28;20512;-70
2021/12/19 04:33:00;;;;;;;7.13;3.70;;;7.90;99.90;;;;;;5076375;28;20817;-70
2021/12/19 04:35:31;;;;;;;4.13;3.50;;;7.90;99.90;;;;;;5077171;28;20489;-70
2021/12/19 04:41:19;;;;;;;5.43;3.20;;;7.90;99.90;;;;;;5076272;28;20906;-70
2021/12/19 04:52:31;;;;;;;6.33;4.17;;;7.90;99.90;;;;;;5075998;28;20422;-69
2021/12/19 04:55:16;;;;;;;5.20;4.70;;;7.90;99.90;;;;;;5076050;28;20529;-69
2021/12/19 04:57:49;;;;;;;5.43;3.80;;;7.80;99.90;;;;;;5076081;28;20496;-70
2021/12/19 05:00:19;;;;;;;8.00;3.90;;;7.80;99.90;;;;;;5075955;28;20466;-69
2021/12/19 05:02:51;;;;;;;4.27;3.60;;;7.80;99.90;;;;;;5075460;28;20577;-70
2021/12/19 05:05:52;;;;;;;4.90;3.70;;;7.80;99.90;;;;;;5076059;28;20521;-70
2021/12/19 05:16:46;;;;;;;6.20;3.80;;;7.70;99.90;;;;;;5033922;28;20483;-70
2021/12/19 05:19:23;;;;;;;7.90;3.03;;;7.70;99.90;;;;;;5065491;28;20482;-70
2021/12/19 05:21:55;;;;;;;8.50;4.00;;;7.70;99.90;;;;;;5075692;28;20442;-70
2021/12/19 05:24:45;;;;;;;6.13;3.53;;;7.70;99.90;;;;;;5075164;28;20803;-70
2021/12/19 05:27:12;;;;;;;4.80;3.20;;;7.60;99.90;;;;;;5075406;28;20503;-70
2021/12/19 05:29:40;;;;;;;6.93;3.20;;;7.60;99.90;;;;;;5075375;28;20501;-70
2021/12/19 05:32:08;;;;;;;7.73;3.60;;;7.60;99.90;;;;;;5074935;28;20505;-70
2021/12/19 05:34:36;;;;;;;5.83;3.73;;;7.60;99.90;;;;;;5075322;28;20465;-70
2021/12/19 05:45:14;;;;;;;9.07;3.67;;;7.60;99.90;;;;;;5052249;28;20454;-69
2021/12/19 05:47:42;;;;;;;9.03;3.37;;;7.60;99.90;;;;;;5075217;28;20460;-69
2021/12/19 05:50:11;;;;;;;7.83;3.53;;;7.60;99.90;;;;;;5075120;28;20446;-68
2021/12/19 05:52:39;;;;;;;8.27;3.17;;;7.60;99.90;;;;;;5075039;28;20450;-70
2021/12/19 05:55:08;;;;;;;9.27;2.90;;;7.60;99.90;;;;;;5074943;28;20766;-69
2021/12/19 05:57:35;;;;;;;5.70;2.97;;;7.60;99.90;;;;;;5075016;28;20461;-69
2021/12/19 06:00:03;;;;;;;5.67;2.73;;;7.60;99.90;;;;;;5074890;28;20515;-69
2021/12/19 06:02:30;;;;;;;7.33;2.53;;;7.60;99.90;;;;;;5074544;28;20501;-69
2021/12/19 06:04:57;;;;;;;7.37;3.13;;;7.60;99.90;;;;;;5074744;28;20489;-69
2021/12/19 06:07:24;;;;;;;6.27;2.93;;;7.60;99.90;;;;;;5074800;28;20469;-69
2021/12/19 06:09:50;;;;;;;10.00;3.03;;;7.60;99.90;;;;;;5074867;28;20844;-70
2021/12/19 06:12:18;;;;;;;5.60;3.20;;;7.60;99.90;;;;;;5074800;28;20838;-70
2021/12/19 06:14:45;;;;;;;5.10;2.50;;;7.50;99.90;;;;;;5074903;28;20934;-69
2021/12/19 06:17:12;;;;;;;5.40;2.83;;;7.60;99.90;;;;;;5074628;28;20458;-69
2021/12/19 06:19:39;;;;;;;10.73;3.03;;;7.50;99.90;;;;;;5074321;28;20477;-69
2021/12/19 06:22:08;;;;;;;9.37;2.90;;;7.50;99.90;;;;;;5074793;28;20459;-69
2021/12/19 06:24:34;;;;;;;5.13;2.30;;;7.50;99.90;;;;;;5074784;28;20515;-69
2021/12/19 06:27:02;;;;;;;5.37;2.33;;;7.50;99.90;;;;;;5074181;28;20826;-69
2021/12/19 06:29:31;;;;;;;4.47;2.00;;;7.50;99.90;;;;;;5074686;28;20756;-69
2021/12/19 06:31:58;;;;;;;5.87;2.40;;;7.50;99.90;;;;;;5074812;28;20466;-68
2021/12/19 06:34:25;;;;;;;7.97;2.93;;;7.50;99.90;;;;;;5074778;28;20605;-69
2021/12/19 06:36:52;;;;;;;6.97;2.60;;;7.50;99.90;;;;;;5074693;28;20481;-69
2021/12/19 06:39:20;;;;;;;8.63;3.20;;;7.50;99.90;;;;;;5074220;28;20511;-69
2021/12/19 06:41:47;;;;;;;4.50;2.23;;;7.50;99.90;;;;;;5074833;28;20469;-71
2021/12/19 06:44:13;;;;;;;4.93;2.07;;;7.50;99.90;;;;;;5074482;28;20467;-70
2021/12/19 06:46:45;;;;;;;8.90;2.70;;;7.60;99.90;;;;;;5074380;28;20465;-69
2021/12/19 06:49:12;;;;;;;3.73;1.90;;;7.50;99.90;;;;;;5074539;28;20497;-69
2021/12/19 06:51:38;;;;;;;5.27;2.80;;;7.50;99.90;;;;;;5074579;28;20488;-70
2021/12/19 06:54:05;;;;;;;3.80;2.10;;;7.50;99.90;;;;;;5074130;28;20911;-69
2021/12/19 06:56:32;;;;;;;3.43;1.80;;;7.50;99.90;;;;;;5074412;28;20466;-69
2021/12/19 06:58:59;;;;;;;2.20;1.50;;;7.50;99.90;;;;;;5074355;28;20765;-69
2021/12/19 07:01:28;;;;;;;7.10;1.60;;;7.40;99.90;;;;;;5073883;28;20934;-70
2021/12/19 07:03:56;;;;;;;5.73;2.47;;;7.40;99.90;;;;;;5073887;28;20458;-69
2021/12/19 07:06:22;;;;;;;3.50;1.30;;;7.40;99.90;;;;;;5074326;28;20527;-69
2021/12/19 07:08:49;;;;;;;9.73;2.10;;;7.40;99.90;;;;;;5074691;28;20462;-70
2021/12/19 07:11:16;;;;;;;4.70;1.73;;;7.40;99.90;;;;;;5074461;28;20591;-70
2021/12/19 07:13:42;;;;;;;2.57;1.40;;;7.40;99.90;;;;;;5074674;28;20800;-70
2021/12/19 07:16:09;;;;;;;2.00;1.50;;;7.40;99.90;;;;;;5074552;28;20515;-70
2021/12/19 07:18:37;;;;;;;3.40;1.80;;;7.40;99.90;;;;;;5075666;28;20560;-70
2021/12/19 07:21:06;;;;;;;5.73;2.13;;;7.40;99.90;;;;;;5075506;28;20986;-70
2021/12/19 07:23:33;;;;;;;3.97;1.50;;;7.40;99.90;;;;;;5075188;28;20466;-69
2021/12/19 07:25:59;;;;;;;4.50;1.50;;;7.40;99.90;;;;;;5075167;28;20557;-69
2021/12/19 07:28:26;;;;;;;2.30;1.13;;;7.40;99.90;;;;;;5075393;28;20469;-70
2021/12/19 07:30:53;;;;;;;3.63;1.60;;;7.40;99.90;;;;;;5074932;28;20846;-69
2021/12/19 07:33:20;;;;;;;2.00;1.50;;;7.40;99.90;;;;;;5074880;28;20454;-69
2021/12/19 07:35:49;;;;;;;4.50;1.63;;;7.40;99.90;;;;;;5075338;28;20516;-69
2021/12/19 07:38:19;;;;;;;3.63;1.33;;;7.30;99.90;;;;;;5076103;28;20638;-70
2021/12/19 07:40:47;;;;;;;7.03;1.80;;;7.30;99.90;;;;;;5077517;28;20474;-69
2021/12/19 07:43:14;;;;;;;2.17;1.70;;;7.30;99.90;;;;;;5078214;28;20454;-70
2021/12/19 07:45:41;;;;;;;3.63;2.00;;;7.30;99.90;;;;;;5077385;28;20507;-69
2021/12/19 07:48:08;;;;;;;5.63;2.30;;;7.30;99.90;;;;;;5077918;28;20462;-69
2021/12/19 07:50:35;;;;;;;3.77;1.77;;;7.20;99.90;;;;;;5078030;28;20450;-70
2021/12/19 07:53:03;;;;;;;5.67;1.80;;;7.20;99.90;;;;;;5077465;28;20473;-69
2021/12/19 07:55:32;;;;;;;3.00;1.77;;;7.20;99.90;;;;;;5077896;28;20519;-69
2021/12/19 07:57:58;;;;;;;2.87;1.60;;;7.10;99.90;;;;;;5077642;28;20519;-70
2021/12/19 08:00:25;;;;;;;2.80;1.90;;;7.10;99.90;;;;;;5077170;28;20492;-70
2021/12/19 08:02:52;;;;;;;3.43;1.40;;;7.10;99.90;;;;;;5077324;28;20478;-70
2021/12/19 08:05:21;;;;;;;3.90;1.67;;;7.00;99.90;;;;;;5077213;28;20454;-70
2021/12/19 08:07:54;;;;;;;1.63;1.20;;;6.90;99.90;;;;;;5077358;28;20516;-70
2021/12/19 08:13:08;;;;;;;2.63;1.40;;;6.80;99.90;;;;;;5077082;28;20425;-70
2021/12/19 08:15:36;;;;;;;2.40;1.10;;;6.80;99.90;;;;;;5077736;28;20462;-70
2021/12/19 08:18:03;;;;;;;2.07;1.43;;;6.80;99.90;;;;;;5076940;28;20458;-69
2021/12/19 08:20:30;;;;;;;1.30;1.00;;;6.70;99.90;;;;;;5077429;28;20482;-69
2021/12/19 08:22:57;;;;;;;1.90;1.43;;;6.70;99.90;;;;;;5076997;28;20458;-69
2021/12/19 08:25:25;;;;;;;5.40;3.17;;;6.70;99.90;;;;;;5077956;28;20469;-70
2021/12/19 08:27:53;;;;;;;7.23;2.70;;;6.70;99.90;;;;;;5077092;28;20886;-69
2021/12/19 08:30:23;;;;;;;3.27;2.00;;;6.70;99.90;;;;;;5077681;28;20507;-69
2021/12/19 08:32:52;;;;;;;2.07;1.60;;;6.70;99.90;;;;;;5077100;28;20478;-70
2021/12/19 08:35:18;;;;;;;3.43;1.40;;;6.70;99.90;;;;;;5077431;28;20553;-70
2021/12/19 08:37:45;;;;;;;2.20;1.70;;;6.70;99.90;;;;;;5078023;28;20852;-69
2021/12/19 08:40:13;;;;;;;1.83;1.40;;;6.70;99.90;;;;;;5077105;28;20497;-69
2021/12/19 08:42:40;;;;;;;2.93;1.20;;;6.70;99.90;;;;;;5077492;28;20469;-69
2021/12/19 08:45:07;;;;;;;2.80;1.57;;;6.70;99.90;;;;;;5077544;28;20763;-70
2021/12/19 08:47:36;;;;;;;2.70;1.27;;;6.60;99.90;;;;;;5076986;28;20857;-70
2021/12/19 08:50:04;;;;;;;4.00;2.40;;;6.60;99.90;;;;;;5076051;28;20454;-70
2021/12/19 08:52:31;;;;;;;1.40;1.13;;;6.60;99.90;;;;;;5076212;28;20940;-70
2021/12/19 08:54:58;;;;;;;3.80;1.60;;;6.60;99.90;;;;;;5076318;28;20491;-70
2021/12/19 08:57:25;;;;;;;5.10;1.60;;;6.60;99.90;;;;;;5076550;28;20468;-70
2021/12/19 08:59:51;;;;;;;2.17;1.43;;;6.60;99.90;;;;;;5076135;28;20458;-70
2021/12/19 09:02:18;;;;;;;2.87;1.47;;;6.60;99.90;;;;;;5075904;28;20489;-70
2021/12/19 09:04:46;;;;;;;2.63;1.40;;;6.60;99.90;;;;;;5076374;28;20466;-70
2021/12/19 09:07:14;;;;;;;1.47;1.20;;;6.60;99.90;;;;;;5076395;28;20466;-70
2021/12/19 09:09:41;;;;;;;4.07;1.40;;;6.60;99.90;;;;;;5076404;28;20890;-70
2021/12/19 09:12:08;;;;;;;2.70;1.50;;;6.60;99.90;;;;;;5076195;28;20462;-70
2021/12/19 09:14:35;;;;;;;3.37;1.20;;;6.60;99.90;;;;;;5076155;28;20466;-70
2021/12/19 09:17:02;;;;;;;2.77;1.07;;;6.50;99.90;;;;;;5075715;28;20536;-70
2021/12/19 09:19:29;;;;;;;1.80;1.20;;;6.50;99.90;;;;;;5075616;28;20451;-70
2021/12/19 09:21:58;;;;;;;1.43;1.23;;;6.50;99.90;;;;;;5075907;28;20485;-69
2021/12/19 09:24:24;;;;;;;2.70;1.53;;;6.60;99.90;;;;;;5075887;28;20519;-70
2021/12/19 09:26:51;;;;;;;3.00;1.07;;;6.60;99.90;;;;;;5075822;28;20458;-70
2021/12/19 09:29:21;;;;;;;2.60;1.40;;;6.60;99.90;;;;;;5075742;28;20485;-69
2021/12/19 09:31:48;;;;;;;5.80;1.37;;;6.60;99.90;;;;;;5076238;28;20454;-70
2021/12/19 09:34:14;;;;;;;3.60;1.43;;;6.60;99.90;;;;;;5075474;28;20837;-70
2021/12/19 09:36:44;;;;;;;2.47;1.67;;;6.60;99.90;;;;;;5075597;28;20454;-69
2021/12/19 09:39:12;;;;;;;3.17;1.47;;;6.50;99.90;;;;;;5075502;28;20787;-70
2021/12/19 09:41:44;;;;;;;3.00;1.47;;;6.50;99.90;;;;;;5075519;28;20482;-70
2021/12/19 09:44:14;;;;;;;4.17;1.77;;;6.50;99.90;;;;;;5075350;28;20485;-70
2021/12/19 09:46:44;;;;;;;2.07;1.70;;;6.50;99.90;;;;;;5075216;28;20478;-70
2021/12/19 09:49:16;;;;;;;4.10;1.60;;;6.50;99.90;;;;;;5075502;28;20523;-70
2021/12/19 09:51:44;;;;;;;2.93;2.10;;;6.50;99.90;;;;;;5075485;28;20438;-71
2021/12/19 09:54:13;;;;;;;3.13;1.37;;;6.50;99.90;;;;;;5075099;28;20454;-69
2021/12/19 09:56:42;;;;;;;3.53;1.60;;;6.50;99.90;;;;;;5075251;28;20469;-70
2021/12/19 09:59:25;;;;;;;3.13;1.90;;;6.50;99.90;;;;;;5076128;28;20907;-70
2021/12/19 10:01:53;;;;;;;4.90;1.80;;;6.60;99.90;;;;;;5073931;28;20547;-70
2021/12/19 10:04:35;;;;;;;5.33;2.00;;;6.60;99.90;;;;;;5075477;28;20466;-69
2021/12/19 10:07:15;;;;;;;3.90;1.83;;;6.60;99.90;;;;;;5075388;28;20442;-69
2021/12/19 10:09:57;;;;;;;5.17;2.13;;;6.50;99.90;;;;;;5077205;28;20450;-69
2021/12/19 10:12:48;;;;;;;3.23;2.00;;;6.50;99.90;;;;;;5077314;28;20431;-69
2021/12/19 10:15:19;;;;;;;3.37;1.40;;;6.60;99.90;;;;;;5077121;28;20511;-70
2021/12/19 10:17:47;;;;;;;2.17;1.50;;;6.60;99.90;;;;;;5076901;28;20541;-70
2021/12/19 10:20:16;;;;;;;6.33;1.97;;;6.50;99.90;;;;;;5076398;28;20450;-70
2021/12/19 10:22:44;;;;;;;3.47;2.10;;;6.60;99.90;;;;;;5076383;28;20482;-68
2021/12/19 10:25:18;;;;;;;2.87;1.87;;;6.60;99.90;;;;;;5076244;28;20788;-69
2021/12/19 10:27:47;;;;;;;3.70;1.90;;;6.60;99.90;;;;;;5075714;28;20452;-69
2021/12/19 10:30:19;;;;;;;2.37;1.40;;;6.70;99.90;;;;;;5074484;28;20911;-69
2021/12/19 10:33:01;;;;;;;2.47;1.67;;;6.70;99.90;;;;;;5074786;28;20875;-69
2021/12/19 10:35:31;;;;;;;4.20;2.00;;;6.70;99.90;;;;;;5075226;28;20465;-71
2021/12/19 10:37:59;;;;;;;3.23;1.70;;;6.70;99.90;;;;;;5074593;28;20458;-69
2021/12/19 10:40:28;;;;;;;5.27;1.23;;;6.60;99.90;;;;;;5074355;28;20458;-70
2021/12/19 10:42:59;;;;;;;5.70;1.93;;;6.70;99.90;;;;;;5074382;28;20469;-69
2021/12/19 10:45:32;;;;;;;3.70;1.43;;;6.70;99.90;;;;;;5074561;28;20438;-70
2021/12/19 10:48:20;;;;;;;3.67;1.60;;;6.70;99.90;;;;;;5074987;28;20815;-69
2021/12/19 10:50:51;;;;;;;5.70;2.00;;;6.70;99.90;;;;;;5074531;28;20443;-69
2021/12/19 10:53:23;;;;;;;2.93;1.53;;;6.70;99.90;;;;;;5074273;28;20890;-69
2021/12/19 10:55:51;;;;;;;6.40;2.07;;;6.80;99.90;;;;;;5073991;28;20500;-70
2021/12/19 10:58:25;;;;;;;2.53;1.50;;;6.80;99.90;;;;;;5074394;28;20470;-70
2021/12/19 11:01:04;;;;;;;3.17;1.40;;;6.80;99.90;;;;;;5074435;28;20480;-69
2021/12/19 11:03:35;;;;;;;5.50;1.90;;;6.80;99.90;;;;;;5073935;28;20539;-70
2021/12/19 11:06:03;;;;;;;2.90;1.77;;;6.80;99.90;;;;;;5074367;28;20458;-70
2021/12/19 11:08:31;;;;;;;3.93;1.80;;;6.90;99.90;;;;;;5074322;28;20458;-69
2021/12/19 11:10:59;;;;;;;3.47;1.40;;;6.90;99.90;;;;;;5074102;28;20455;-70
2021/12/19 11:13:26;;;;;;;2.90;1.60;;;6.90;99.90;;;;;;5076799;28;20536;-70
2021/12/19 11:15:52;;;;;;;6.23;2.37;;;6.90;99.90;;;;;;5077867;28;20469;-70
2021/12/19 11:18:19;;;;;;;5.90;2.20;;;6.90;99.90;;;;;;5078006;28;20468;-70
2021/12/19 11:20:46;;;;;;;2.27;1.53;;;6.90;99.90;;;;;;5077731;28;20469;-69
2021/12/19 11:23:12;;;;;;;3.50;1.93;;;6.90;99.90;;;;;;5077833;28;20935;-70
2021/12/19 11:25:39;;;;;;;4.87;1.87;;;6.90;99.90;;;;;;5078051;28;20472;-70
2021/12/19 11:28:08;;;;;;;2.70;1.23;;;6.90;99.90;;;;;;5077845;28;20465;-69
2021/12/19 11:30:36;;;;;;;3.93;1.73;;;6.90;99.90;;;;;;5078623;28;20458;-72
2021/12/19 11:33:19;;;;;;;7.40;2.00;;;6.90;99.90;;;;;;5081100;28;20446;-70
2021/12/19 11:35:50;;;;;;;5.03;1.80;;;6.90;99.90;;;;;;5078721;28;20465;-69
2021/12/19 11:38:21;;;;;;;3.97;1.77;;;6.90;99.90;;;;;;5078336;28;20821;-70
2021/12/19 11:40:50;;;;;;;4.83;1.60;;;6.80;99.90;;;;;;5077552;28;20856;-70
2021/12/19 11:43:18;;;;;;;4.73;1.63;;;6.90;99.90;;;;;;5077568;28;20454;-70
2021/12/19 11:45:52;;;;;;;5.70;1.90;;;6.90;99.90;;;;;;5077474;28;20465;-69
2021/12/19 11:48:25;;;;;;;5.20;2.00;;;6.90;99.90;;;;;;5077269;28;20439;-69
2021/12/19 11:50:56;;;;;;;3.13;1.47;;;6.90;99.90;;;;;;5077016;28;20477;-69
2021/12/19 11:53:29;;;;;;;3.20;1.77;;;6.90;99.90;;;;;;5077276;28;20446;-70
2021/12/19 11:55:58;;;;;;;4.97;1.70;;;6.80;99.90;;;;;;5077118;28;20454;-69
2021/12/19 11:58:32;;;;;;;3.23;2.00;;;6.80;99.90;;;;;;5077045;28;20484;-70
2021/12/19 12:01:03;;;;;;;2.57;1.57;;;6.80;99.90;;;;;;5077097;28;20516;-69
2021/12/19 12:03:33;;;;;;;4.80;2.63;;;6.80;99.90;;;;;;5076605;28;20485;-69
2021/12/19 12:06:24;;;;;;;4.93;2.20;;;6.80;99.90;;;;;;5076783;28;20907;-69
2021/12/19 12:09:13;;;;;;;5.10;1.77;;;6.80;99.90;;;;;;5076947;28;20978;-70
2021/12/19 12:12:02;;;;;;;3.43;1.67;;;6.80;99.90;;;;;;5077028;28;20798;-70
2021/12/19 12:14:34;;;;;;;7.13;1.80;;;6.80;99.90;;;;;;5076283;28;20923;-70
2021/12/19 12:17:06;;;;;;;5.93;1.90;;;6.80;99.90;;;;;;5076725;28;20455;-70
2021/12/19 12:19:44;;;;;;;4.90;2.40;;;6.80;99.90;;;;;;5076710;28;20442;-69
2021/12/19 12:22:31;;;;;;;6.53;2.00;;;6.90;99.90;;;;;;5076846;28;20482;-70
2021/12/19 12:25:20;;;;;;;4.63;2.03;;;6.80;99.90;;;;;;5075686;28;20449;-69
2021/12/19 12:27:52;;;;;;;6.13;1.60;;;6.80;99.90;;;;;;5076340;28;20453;-70
2021/12/19 12:30:24;;;;;;;6.03;1.83;;;6.80;99.90;;;;;;5076788;28;20450;-70
2021/12/19 12:32:51;;;;;;;4.90;1.60;;;6.80;99.90;;;;;;5076430;28;20443;-70
2021/12/19 12:35:21;;;;;;;4.90;1.33;;;6.80;99.90;;;;;;5076645;28;20469;-70
2021/12/19 12:37:50;;;;;;;3.80;1.50;;;6.80;99.90;;;;;;5076585;28;20442;-69
2021/12/19 12:40:26;;;;;;;4.47;1.70;;;6.90;99.90;;;;;;5076233;28;20458;-70
2021/12/19 12:43:05;;;;;;;3.77;1.80;;;6.90;99.90;;;;;;5076238;28;20472;-70
2021/12/19 12:45:49;;;;;;;2.97;1.73;;;6.80;99.90;;;;;;5076064;28;20439;-70
2021/12/19 12:48:26;;;;;;;11.37;3.43;;;6.90;99.90;;;;;;5076182;28;20438;-70
2021/12/19 12:50:53;;;;;;;9.30;3.07;;;6.90;99.90;;;;;;5076219;28;20849;-70
2021/12/19 12:53:29;;;;;;;4.60;1.50;;;6.90;99.90;;;;;;5076040;28;20540;-70
2021/12/19 12:56:07;;;;;;;3.00;1.60;;;6.90;99.90;;;;;;5075807;28;20445;-70
2021/12/19 12:58:42;;;;;;;2.57;1.63;;;6.90;99.90;;;;;;5075899;28;20446;-70
2021/12/19 13:01:26;;;;;;;4.13;1.93;;;6.90;99.90;;;;;;5075901;28;20446;-70
2021/12/19 13:04:01;;;;;;;4.53;1.77;;;6.90;99.90;;;;;;5075424;28;20486;-70
2021/12/19 13:06:57;;;;;;;3.23;1.57;;;6.90;99.90;;;;;;5075901;28;20447;-70
2021/12/19 13:09:30;;;;;;;5.57;1.90;;;6.90;99.90;;;;;;5072967;28;20454;-71
2021/12/19 13:12:07;;;;;;;4.23;1.93;;;6.90;99.90;;;;;;5075828;28;20454;-69
2021/12/19 13:14:35;;;;;;;4.30;1.90;;;7.00;99.90;;;;;;5075534;28;20438;-70
2021/12/19 13:17:06;;;;;;;6.77;2.23;;;6.90;99.90;;;;;;5075261;28;20451;-70
2021/12/19 13:19:55;;;;;;;3.90;1.73;;;6.90;99.90;;;;;;5075653;28;20442;-70
2021/12/19 13:22:28;;;;;;;6.10;1.60;;;6.90;99.90;;;;;;5075637;28;20798;-69
2021/12/19 13:24:56;;;;;;;3.53;1.97;;;7.00;99.90;;;;;;5074815;28;20844;-70
2021/12/19 13:27:25;;;;;;;4.57;1.43;;;7.00;99.90;;;;;;5075427;28;20458;-70
2021/12/19 13:30:03;;;;;;;4.13;2.00;;;7.00;99.90;;;;;;5075402;28;20458;-69
2021/12/19 13:32:34;;;;;;;3.53;1.87;;;7.00;99.90;;;;;;5075671;28;20453;-69
2021/12/19 13:35:04;;;;;;;3.60;1.40;;;7.00;99.90;;;;;;5075089;28;20496;-69
2021/12/19 13:37:33;;;;;;;2.93;1.40;;;7.00;99.90;;;;;;5075465;28;20458;-68
2021/12/19 13:40:11;;;;;;;2.37;1.60;;;7.00;99.90;;;;;;5075320;28;20512;-69
2021/12/19 13:42:40;;;;;;;3.73;1.67;;;7.00;99.90;;;;;;5074849;28;20958;-69
2021/12/19 13:45:22;;;;;;;5.37;1.60;;;7.00;99.90;;;;;;5075058;28;20868;-69
2021/12/19 13:47:50;;;;;;;4.63;2.00;;;7.00;99.90;;;;;;5074784;28;20442;-70
2021/12/19 13:50:17;;;;;;;5.50;2.17;;;7.00;99.90;;;;;;5074810;28;20469;-72
2021/12/19 13:52:44;;;;;;;4.93;2.10;;;7.10;99.90;;;;;;5074932;28;20454;-70
2021/12/19 13:55:14;;;;;;;3.20;1.80;;;7.00;99.90;;;;;;5075036;28;20466;-69
2021/12/19 13:57:41;;;;;;;4.20;1.60;;;7.10;99.90;;;;;;5074454;28;20490;-70